Time;durP1;ratioP1;P1;durP2;ratioP2;P2;SDS_P1;SDS_P2;PMS_P1;PMS_P2;Temp;Humidity;BMP_temperature;BMP_pressure;BME280_temperature;BME280_humidity;BME280_pressure;Samples;Min_cycle;Max_cycle;Signal;HPM_P1;HPM_P2
2021/12/12 00:00:51;;;;;;;40.97;23.58;;;4.30;99.90;;;;;;5074793;28;20040;-68
2021/12/12 00:03:33;;;;;;;39.03;23.13;;;4.30;99.90;;;;;;5073378;28;20497;-68
2021/12/12 00:06:04;;;;;;;43.40;23.50;;;4.30;99.90;;;;;;5091358;28;20050;-68
2021/12/12 00:08:29;;;;;;;42.92;23.88;;;4.30;99.90;;;;;;5087552;28;20063;-68
2021/12/12 00:11:06;;;;;;;44.60;23.92;;;4.30;99.90;;;;;;5073620;28;20461;-68
2021/12/12 00:13:38;;;;;;;43.78;23.38;;;4.40;99.90;;;;;;5073795;28;20048;-68
2021/12/12 00:16:05;;;;;;;41.28;22.92;;;4.30;99.90;;;;;;5073912;28;20040;-69
2021/12/12 00:18:31;;;;;;;47.13;22.38;;;4.40;99.90;;;;;;5080306;28;20081;-68
2021/12/12 00:20:58;;;;;;;38.97;21.10;;;4.40;99.90;;;;;;5093732;28;20048;-68
2021/12/12 00:23:23;;;;;;;35.90;20.67;;;4.40;99.90;;;;;;5094069;28;20040;-70
2021/12/12 00:25:52;;;;;;;41.92;22.70;;;4.40;99.90;;;;;;5094120;28;20046;-69
2021/12/12 00:28:19;;;;;;;41.15;21.92;;;4.40;99.90;;;;;;5093471;28;20023;-69
2021/12/12 00:30:46;;;;;;;40.25;22.63;;;4.40;99.90;;;;;;5093983;28;20036;-69
2021/12/12 00:33:13;;;;;;;40.42;21.83;;;4.40;99.90;;;;;;5094286;28;20044;-69
2021/12/12 00:35:40;;;;;;;42.47;22.52;;;4.40;99.90;;;;;;5093881;28;20048;-68
2021/12/12 00:38:12;;;;;;;43.58;22.40;;;4.40;99.90;;;;;;5093371;28;20052;-69
2021/12/12 00:40:43;;;;;;;39.45;22.05;;;4.40;99.90;;;;;;5093849;28;20035;-70
2021/12/12 00:43:21;;;;;;;40.55;21.63;;;4.40;99.90;;;;;;5093925;28;20047;-69
2021/12/12 00:45:47;;;;;;;40.42;21.70;;;4.40;99.90;;;;;;5073631;28;20047;-69
2021/12/12 00:48:12;;;;;;;37.08;21.55;;;4.40;99.90;;;;;;5077329;28;20032;-68
2021/12/12 00:50:41;;;;;;;40.40;20.10;;;4.40;99.90;;;;;;5093636;28;20047;-68
2021/12/12 00:53:09;;;;;;;43.38;21.92;;;4.40;99.90;;;;;;5092659;28;20543;-68
2021/12/12 00:55:38;;;;;;;36.53;20.80;;;4.40;99.90;;;;;;5091194;28;20040;-69
2021/12/12 00:58:13;;;;;;;34.65;21.00;;;4.40;99.90;;;;;;5089987;28;20064;-69
2021/12/12 01:00:47;;;;;;;37.63;20.38;;;4.40;99.90;;;;;;5091219;28;20104;-69
2021/12/12 01:03:14;;;;;;;38.33;22.13;;;4.50;99.90;;;;;;5090705;28;20473;-68
2021/12/12 01:05:42;;;;;;;34.58;19.45;;;4.50;99.90;;;;;;5092118;28;20036;-68
2021/12/12 01:08:08;;;;;;;38.75;19.42;;;4.50;99.90;;;;;;5091191;28;20047;-68
2021/12/12 01:10:47;;;;;;;48.53;22.30;;;4.50;99.90;;;;;;5092956;28;20047;-69
2021/12/12 01:13:13;;;;;;;39.63;20.05;;;4.50;99.90;;;;;;5093879;28;20040;-69
2021/12/12 01:15:48;;;;;;;39.42;20.95;;;4.50;99.90;;;;;;5093420;28;20059;-69
2021/12/12 01:18:28;;;;;;;38.83;21.23;;;4.50;99.90;;;;;;5092844;28;20064;-70
2021/12/12 01:21:00;;;;;;;41.50;22.02;;;4.50;99.90;;;;;;5093177;28;20052;-71
2021/12/12 01:23:38;;;;;;;36.50;20.10;;;4.50;99.90;;;;;;5093375;28;20040;-68
2021/12/12 01:26:06;;;;;;;35.50;20.98;;;4.60;99.90;;;;;;5093631;28;20051;-68
2021/12/12 01:28:35;;;;;;;38.00;20.65;;;4.60;99.90;;;;;;5096438;28;20042;-68
2021/12/12 01:31:05;;;;;;;38.15;20.02;;;4.60;99.90;;;;;;5097025;28;20047;-69
2021/12/12 01:33:34;;;;;;;42.55;20.95;;;4.60;99.90;;;;;;5097059;28;20039;-69
2021/12/12 01:36:12;;;;;;;39.60;20.52;;;4.60;99.90;;;;;;5096344;28;20380;-69
2021/12/12 01:38:52;;;;;;;41.55;20.50;;;4.60;99.90;;;;;;5095634;28;20123;-70
2021/12/12 01:41:33;;;;;;;40.97;20.92;;;4.60;99.90;;;;;;5096761;28;20364;-71
2021/12/12 01:44:06;;;;;;;38.70;20.35;;;4.60;99.90;;;;;;5096976;28;20043;-72
2021/12/12 01:46:41;;;;;;;36.17;20.40;;;4.60;99.90;;;;;;5096877;28;20117;-71
2021/12/12 01:49:15;;;;;;;35.90;20.48;;;4.60;99.90;;;;;;5096673;28;20055;-74
2021/12/12 01:51:43;;;;;;;37.10;19.75;;;4.60;99.90;;;;;;5097455;28;20051;-74
2021/12/12 01:54:13;;;;;;;42.80;19.27;;;4.60;99.90;;;;;;5097009;28;20109;-73
2021/12/12 01:56:49;;;;;;;36.03;19.00;;;4.60;99.90;;;;;;5096838;28;20064;-72
2021/12/12 01:59:15;;;;;;;39.80;19.08;;;4.60;99.90;;;;;;5095724;28;20050;-72
2021/12/12 02:02:05;;;;;;;38.15;18.10;;;4.60;99.90;;;;;;5096775;28;20066;-70
2021/12/12 02:04:41;;;;;;;37.45;18.10;;;4.60;99.90;;;;;;5096791;28;20040;-70
2021/12/12 02:07:09;;;;;;;32.17;17.20;;;4.60;99.90;;;;;;5095541;28;20105;-70
2021/12/12 02:09:35;;;;;;;38.42;19.02;;;4.60;99.90;;;;;;5096219;28;20365;-71
2021/12/12 02:12:03;;;;;;;39.03;17.02;;;4.60;99.90;;;;;;5096914;28;20032;-69
2021/12/12 02:14:32;;;;;;;35.25;17.45;;;4.60;99.90;;;;;;5095657;28;20652;-70
2021/12/12 02:17:11;;;;;;;35.15;17.77;;;4.70;99.90;;;;;;5095985;28;20481;-69
2021/12/12 02:20:05;;;;;;;32.03;17.05;;;4.70;99.90;;;;;;5095081;28;20048;-69
2021/12/12 02:35:58;;;;;;;29.35;16.50;;;4.80;99.90;;;;;;5075390;28;20051;-71
2021/12/12 02:38:30;;;;;;;38.20;16.40;;;4.80;99.90;;;;;;5079120;28;20036;-70
2021/12/12 02:41:11;;;;;;;37.20;16.30;;;4.80;99.90;;;;;;5095009;28;20032;-71
2021/12/12 02:43:48;;;;;;;30.23;15.98;;;4.80;99.90;;;;;;5095900;28;20599;-70
2021/12/12 02:46:17;;;;;;;31.17;14.98;;;4.80;99.90;;;;;;5095886;28;20441;-70
2021/12/12 02:48:46;;;;;;;35.08;15.80;;;4.70;99.90;;;;;;5095561;28;20047;-70
2021/12/12 02:51:16;;;;;;;34.03;13.50;;;4.80;99.90;;;;;;5095894;28;20123;-70
2021/12/12 02:54:03;;;;;;;33.10;16.05;;;4.70;99.90;;;;;;5096337;28;20035;-70
2021/12/12 02:56:42;;;;;;;31.45;16.27;;;4.80;99.90;;;;;;5095805;28;20043;-70
2021/12/12 02:59:16;;;;;;;35.60;15.70;;;4.80;99.90;;;;;;5095342;28;20124;-70
2021/12/12 03:01:47;;;;;;;32.08;15.13;;;4.80;99.90;;;;;;5095860;28;20055;-71
2021/12/12 03:04:13;;;;;;;38.35;16.17;;;4.90;99.90;;;;;;5095874;28;20124;-70
2021/12/12 03:06:42;;;;;;;38.40;17.38;;;4.90;99.90;;;;;;5094982;28;20481;-70
2021/12/12 03:09:24;;;;;;;33.60;15.88;;;4.80;99.90;;;;;;5095405;28;20122;-70
2021/12/12 03:12:00;;;;;;;30.45;16.20;;;4.80;99.90;;;;;;5095792;28;20360;-69
2021/12/12 03:14:33;;;;;;;37.33;14.32;;;4.80;99.90;;;;;;5095541;28;20047;-70
2021/12/12 03:17:21;;;;;;;32.70;15.90;;;4.80;99.90;;;;;;5094947;28;20044;-69
2021/12/12 03:19:51;;;;;;;33.15;15.10;;;4.80;99.90;;;;;;5094603;28;20048;-70
2021/12/12 03:22:18;;;;;;;27.10;13.90;;;4.80;99.90;;;;;;5095460;28;20028;-70
2021/12/12 03:24:44;;;;;;;33.20;14.27;;;4.90;99.90;;;;;;5095420;28;20058;-69
2021/12/12 03:27:10;;;;;;;29.63;15.50;;;4.80;99.90;;;;;;5094926;28;20055;-69
2021/12/12 03:29:38;;;;;;;33.33;15.07;;;4.80;99.90;;;;;;5094852;28;20075;-69
2021/12/12 03:32:08;;;;;;;29.80;15.57;;;4.80;99.90;;;;;;5095135;28;20119;-69
2021/12/12 03:34:38;;;;;;;33.00;16.25;;;4.90;99.90;;;;;;5094938;28;20036;-69
2021/12/12 03:37:08;;;;;;;31.38;15.35;;;4.80;99.90;;;;;;5094482;28;20412;-69
2021/12/12 03:39:37;;;;;;;29.80;14.38;;;4.80;99.90;;;;;;5094821;28;20407;-70
2021/12/12 03:42:08;;;;;;;30.27;14.63;;;4.80;99.90;;;;;;5093716;28;20537;-68
2021/12/12 03:44:35;;;;;;;30.90;14.98;;;4.80;99.90;;;;;;5094870;28;20040;-69
2021/12/12 03:47:08;;;;;;;25.50;13.25;;;4.80;99.90;;;;;;5093832;28;20461;-68
2021/12/12 03:49:37;;;;;;;31.52;14.95;;;4.90;99.90;;;;;;5094238;28;20036;-69
2021/12/12 03:52:06;;;;;;;28.52;14.80;;;4.80;99.90;;;;;;5094893;28;20044;-68
2021/12/12 03:54:32;;;;;;;28.20;15.30;;;4.80;99.90;;;;;;5094225;28;20658;-68
2021/12/12 03:56:58;;;;;;;26.23;13.95;;;4.80;99.90;;;;;;5094366;28;20039;-68
2021/12/12 03:59:24;;;;;;;25.33;14.27;;;4.80;99.90;;;;;;5093975;28;20090;-68
2021/12/12 04:01:51;;;;;;;26.30;12.68;;;4.90;99.90;;;;;;5094338;28;20043;-69
2021/12/12 04:04:25;;;;;;;20.80;11.75;;;4.80;99.90;;;;;;5094598;28;20036;-69
2021/12/12 04:06:53;;;;;;;23.98;13.02;;;4.90;99.90;;;;;;5094005;28;20032;-69
2021/12/12 04:09:19;;;;;;;26.30;12.95;;;4.90;99.90;;;;;;5094280;28;20216;-69
2021/12/12 04:11:59;;;;;;;29.55;13.40;;;4.90;99.90;;;;;;5094558;28;20044;-69
2021/12/12 04:14:26;;;;;;;24.38;14.00;;;4.90;99.90;;;;;;5094142;28;20050;-69
2021/12/12 04:16:58;;;;;;;27.20;13.93;;;4.90;99.90;;;;;;5093718;28;20125;-69
2021/12/12 04:19:25;;;;;;;25.75;13.77;;;5.00;99.90;;;;;;5093800;28;20076;-69
2021/12/12 04:21:52;;;;;;;24.77;13.18;;;5.00;99.90;;;;;;5094260;28;20118;-69
2021/12/12 04:24:25;;;;;;;25.23;13.52;;;5.00;99.90;;;;;;5093635;28;20044;-68
2021/12/12 04:26:52;;;;;;;29.97;12.93;;;5.00;99.90;;;;;;5093770;28;20040;-68
2021/12/12 04:29:22;;;;;;;25.45;14.57;;;5.00;99.90;;;;;;5093769;28;20349;-68
2021/12/12 04:31:52;;;;;;;22.63;12.55;;;5.10;99.90;;;;;;5094049;28;20039;-68
2021/12/12 04:34:27;;;;;;;21.98;11.80;;;5.10;99.90;;;;;;5094351;28;20373;-69
2021/12/12 04:36:53;;;;;;;;;;;5.10;99.90;;;;;;5093289;28;20131;-69
2021/12/12 04:39:25;;;;;;;21.48;11.68;;;5.10;99.90;;;;;;5093709;28;20023;-70
2021/12/12 04:41:56;;;;;;;17.70;11.27;;;5.10;99.90;;;;;;5093947;28;20102;-68
2021/12/12 04:44:25;;;;;;;21.60;11.82;;;5.10;99.90;;;;;;5093797;28;20415;-69
2021/12/12 04:50:13;;;;;;;20.17;11.68;;;5.20;99.90;;;;;;5093748;28;20109;-68
2021/12/12 04:52:58;;;;;;;23.10;11.52;;;5.20;99.90;;;;;;5093870;28;20137;-69
2021/12/12 04:55:37;;;;;;;20.20;10.50;;;5.20;99.90;;;;;;5094041;28;20036;-70
2021/12/12 04:58:15;;;;;;;14.18;9.02;;;5.30;99.90;;;;;;5093068;28;20036;-70
2021/12/12 05:00:48;;;;;;;16.02;9.77;;;5.30;99.90;;;;;;5073356;28;20045;-69
2021/12/12 05:03:17;;;;;;;15.95;9.73;;;5.40;99.90;;;;;;5077080;28;20059;-69
2021/12/12 05:05:50;;;;;;;16.60;10.05;;;5.40;99.90;;;;;;5077764;28;20068;-70
2021/12/12 05:08:26;;;;;;;16.17;10.82;;;5.40;99.90;;;;;;5079851;28;20037;-70
2021/12/12 05:11:00;;;;;;;16.02;10.15;;;5.40;99.90;;;;;;5097538;28;20047;-69
2021/12/12 05:13:37;;;;;;;14.23;9.63;;;5.40;99.90;;;;;;5097921;28;20084;-70
2021/12/12 05:16:12;;;;;;;13.82;9.05;;;5.40;99.90;;;;;;5097686;28;20040;-70
2021/12/12 05:18:49;;;;;;;13.55;9.48;;;5.50;99.90;;;;;;5096843;28;20040;-71
2021/12/12 05:21:19;;;;;;;15.68;9.93;;;5.50;99.90;;;;;;5097378;28;20077;-71
2021/12/12 05:23:47;;;;;;;12.48;8.43;;;5.50;99.90;;;;;;5097742;28;20094;-71
2021/12/12 05:26:18;;;;;;;16.65;10.30;;;5.50;99.90;;;;;;5097771;28;20167;-70
2021/12/12 05:29:01;;;;;;;13.77;9.13;;;5.50;99.90;;;;;;5097400;28;20377;-70
2021/12/12 05:31:28;;;;;;;16.67;9.38;;;5.50;99.90;;;;;;5097439;28;20039;-71
2021/12/12 05:33:55;;;;;;;14.63;9.63;;;5.50;99.90;;;;;;5097204;28;20037;-71
2021/12/12 05:36:21;;;;;;;12.73;9.40;;;5.50;99.90;;;;;;5096158;28;20040;-70
2021/12/12 05:38:48;;;;;;;13.57;9.30;;;5.60;99.90;;;;;;5097098;28;20032;-71
2021/12/12 05:41:18;;;;;;;13.98;9.50;;;5.50;99.90;;;;;;5097225;28;20137;-70
2021/12/12 05:43:46;;;;;;;16.25;10.27;;;5.50;99.90;;;;;;5097356;28;20059;-70
2021/12/12 05:46:15;;;;;;;15.85;10.00;;;5.60;99.90;;;;;;5097056;28;20055;-70
2021/12/12 05:48:43;;;;;;;17.42;11.48;;;5.60;99.90;;;;;;5096355;28;20473;-70
2021/12/12 05:51:09;;;;;;;16.30;10.50;;;5.50;99.90;;;;;;5097030;28;20059;-70
2021/12/12 05:53:35;;;;;;;18.65;10.15;;;5.60;99.90;;;;;;5097048;28;20457;-70
2021/12/12 05:56:01;;;;;;;15.10;9.57;;;5.60;99.90;;;;;;5096986;28;20051;-70
2021/12/12 05:58:26;;;;;;;12.98;8.68;;;5.60;99.90;;;;;;5095440;28;20036;-71
2021/12/12 06:01:06;;;;;;;15.98;11.15;;;5.60;99.90;;;;;;5096547;28;20051;-70
2021/12/12 06:03:37;;;;;;;15.20;9.65;;;5.60;99.90;;;;;;5095729;28;20089;-70
2021/12/12 06:06:06;;;;;;;16.27;11.27;;;5.60;99.90;;;;;;5096661;28;20511;-71
2021/12/12 06:08:33;;;;;;;15.40;10.05;;;5.70;99.90;;;;;;5095724;28;20051;-71
2021/12/12 06:10:59;;;;;;;14.25;10.57;;;5.70;99.90;;;;;;5096699;28;20036;-70
2021/12/12 06:13:25;;;;;;;14.82;9.98;;;5.70;99.90;;;;;;5096147;28;20036;-71
2021/12/12 06:15:54;;;;;;;16.45;10.27;;;5.70;99.90;;;;;;5095179;28;20389;-71
2021/12/12 06:18:22;;;;;;;14.07;9.27;;;5.70;99.90;;;;;;5095779;28;20432;-70
2021/12/12 06:20:48;;;;;;;14.02;10.13;;;5.70;99.90;;;;;;5095002;28;20052;-70
2021/12/12 06:23:15;;;;;;;16.13;9.27;;;5.70;99.90;;;;;;5095370;28;20421;-71
2021/12/12 06:25:42;;;;;;;13.70;9.63;;;5.80;99.90;;;;;;5096305;28;20350;-71
2021/12/12 06:28:11;;;;;;;15.38;10.63;;;5.80;99.90;;;;;;5095931;28;20044;-70
2021/12/12 06:30:37;;;;;;;15.18;10.32;;;5.80;99.90;;;;;;5075904;28;20111;-71
2021/12/12 06:33:04;;;;;;;14.73;10.05;;;5.80;99.90;;;;;;5075734;28;20477;-70
2021/12/12 06:35:30;;;;;;;15.35;9.80;;;5.80;99.90;;;;;;5075789;28;20462;-70
2021/12/12 06:38:09;;;;;;;16.30;10.48;;;5.90;99.90;;;;;;5075629;28;20048;-72
2021/12/12 06:40:35;;;;;;;13.93;10.07;;;5.90;99.90;;;;;;5095510;28;20537;-71
2021/12/12 06:43:07;;;;;;;13.35;9.45;;;5.90;99.90;;;;;;5096434;28;20058;-70
2021/12/12 06:45:34;;;;;;;15.70;9.95;;;5.90;99.90;;;;;;5096144;28;20032;-71
2021/12/12 06:48:03;;;;;;;18.30;11.25;;;6.00;99.90;;;;;;5095742;28;20044;-71
2021/12/12 06:50:29;;;;;;;14.50;10.82;;;6.00;99.90;;;;;;5095728;28;20039;-71
2021/12/12 06:52:56;;;;;;;18.40;11.63;;;5.90;99.90;;;;;;5095930;28;20349;-70
2021/12/12 06:55:22;;;;;;;14.00;10.25;;;5.90;99.90;;;;;;5096038;28;20051;-71
2021/12/12 06:57:49;;;;;;;14.68;10.38;;;6.00;99.90;;;;;;5095425;28;20161;-70
2021/12/12 07:00:20;;;;;;;16.15;10.77;;;6.00;99.90;;;;;;5094193;28;20141;-70
2021/12/12 07:02:46;;;;;;;16.15;10.57;;;6.00;99.90;;;;;;5095695;28;20051;-70
2021/12/12 07:05:17;;;;;;;18.52;10.20;;;6.00;99.90;;;;;;5095986;28;20054;-70
2021/12/12 07:07:44;;;;;;;19.83;13.32;;;6.10;99.90;;;;;;5095354;28;20380;-70
2021/12/12 07:10:17;;;;;;;19.23;12.35;;;6.10;99.90;;;;;;5095016;28;20051;-70
2021/12/12 07:12:43;;;;;;;18.52;11.55;;;6.10;99.90;;;;;;5095508;28;20411;-69
2021/12/12 07:15:14;;;;;;;19.50;13.45;;;6.10;99.90;;;;;;5095174;28;20456;-70
2021/12/12 07:17:39;;;;;;;20.92;12.48;;;6.10;99.90;;;;;;5075000;28;20089;-70
2021/12/12 07:20:09;;;;;;;21.25;13.25;;;6.10;99.90;;;;;;5076818;28;20053;-70
2021/12/12 07:22:35;;;;;;;18.63;12.82;;;6.20;99.90;;;;;;5074019;28;20496;-69
2021/12/12 07:25:03;;;;;;;24.83;15.48;;;6.20;99.90;;;;;;5072648;28;20044;-70
2021/12/12 07:27:28;;;;;;;21.05;13.02;;;6.20;99.90;;;;;;5073809;28;20080;-70
2021/12/12 07:29:58;;;;;;;23.20;14.40;;;6.30;99.90;;;;;;5076204;28;20123;-70
2021/12/12 07:32:25;;;;;;;24.27;14.82;;;6.30;99.90;;;;;;5073624;28;20472;-70
2021/12/12 07:34:51;;;;;;;25.08;15.45;;;6.30;99.90;;;;;;5076251;28;20043;-70
2021/12/12 07:37:18;;;;;;;25.90;15.45;;;6.30;99.90;;;;;;5073987;28;20028;-70
2021/12/12 07:39:44;;;;;;;28.77;16.05;;;6.40;99.90;;;;;;5076759;28;20032;-70
2021/12/12 07:42:11;;;;;;;31.80;17.15;;;6.40;99.90;;;;;;5073866;28;20154;-69
2021/12/12 07:44:40;;;;;;;32.70;17.65;;;6.40;99.90;;;;;;5090345;28;20044;-70
2021/12/12 07:47:07;;;;;;;24.15;15.13;;;6.50;99.90;;;;;;5073563;28;20036;-70
2021/12/12 07:49:37;;;;;;;24.75;15.68;;;6.50;99.90;;;;;;5077298;28;20064;-70
2021/12/12 07:52:05;;;;;;;26.95;17.00;;;6.50;99.90;;;;;;5091166;28;20546;-70
2021/12/12 07:54:33;;;;;;;24.00;14.95;;;6.60;99.90;;;;;;5094490;28;20044;-71
2021/12/12 07:57:00;;;;;;;23.42;15.90;;;6.70;99.90;;;;;;5084119;28;20115;-68
2021/12/12 07:59:26;;;;;;;28.75;17.20;;;6.70;99.90;;;;;;5075782;28;20097;-69
2021/12/12 08:01:52;;;;;;;28.67;18.17;;;6.70;99.90;;;;;;5074441;28;20090;-69
2021/12/12 08:04:25;;;;;;;30.35;18.10;;;6.60;99.90;;;;;;5074303;28;20044;-69
2021/12/12 08:06:51;;;;;;;29.33;17.63;;;6.70;99.90;;;;;;5073178;28;20415;-69
2021/12/12 08:09:18;;;;;;;28.52;17.67;;;6.70;99.90;;;;;;5076283;28;20037;-70
2021/12/12 08:11:46;;;;;;;31.55;18.13;;;6.70;99.90;;;;;;5073822;28;20189;-68
2021/12/12 08:14:19;;;;;;;25.67;15.88;;;6.60;99.90;;;;;;5073507;28;20358;-69
2021/12/12 08:16:47;;;;;;;27.83;17.50;;;6.70;99.90;;;;;;5073223;28;20052;-68
2021/12/12 08:19:13;;;;;;;28.67;17.52;;;6.70;99.90;;;;;;5075875;28;20402;-68
2021/12/12 08:21:39;;;;;;;29.00;17.05;;;6.70;99.90;;;;;;5072739;28;20425;-69
2021/12/12 08:24:08;;;;;;;34.20;18.90;;;6.80;99.90;;;;;;5073318;28;20097;-69
2021/12/12 08:26:36;;;;;;;30.48;18.35;;;6.80;99.90;;;;;;5073890;28;20083;-69
2021/12/12 08:29:06;;;;;;;29.40;17.60;;;6.80;99.90;;;;;;5079881;28;20457;-68
2021/12/12 08:31:32;;;;;;;31.58;18.38;;;6.80;99.90;;;;;;5094070;28;20105;-67
2021/12/12 08:33:58;;;;;;;32.00;18.95;;;6.80;99.90;;;;;;5094110;28;20445;-69
2021/12/12 08:36:23;;;;;;;35.40;17.88;;;6.80;99.90;;;;;;5086198;28;20044;-68
2021/12/12 08:38:51;;;;;;;32.33;18.17;;;6.80;99.90;;;;;;5078970;28;20040;-67
2021/12/12 08:41:17;;;;;;;34.25;18.65;;;6.80;99.90;;;;;;5094004;28;20051;-69
2021/12/12 08:43:43;;;;;;;32.22;18.23;;;6.90;99.90;;;;;;5093989;28;20036;-69
2021/12/12 08:46:12;;;;;;;35.50;18.92;;;6.90;99.90;;;;;;5093480;28;20036;-68
2021/12/12 08:48:43;;;;;;;34.78;18.80;;;6.90;99.90;;;;;;5093187;28;20428;-70
2021/12/12 08:51:17;;;;;;;33.38;19.00;;;7.00;99.90;;;;;;5092749;28;20104;-67
2021/12/12 08:53:49;;;;;;;31.23;16.90;;;7.00;99.90;;;;;;5091269;28;20128;-68
2021/12/12 08:56:20;;;;;;;34.95;20.08;;;7.00;99.90;;;;;;5071905;28;20044;-68
2021/12/12 08:58:47;;;;;;;31.27;18.08;;;7.10;99.90;;;;;;5077197;28;20104;-68
2021/12/12 09:01:17;;;;;;;31.48;18.63;;;7.10;99.90;;;;;;5072062;28;20072;-67
2021/12/12 09:03:55;;;;;;;30.75;18.08;;;7.10;99.90;;;;;;5072246;28;20037;-67
2021/12/12 09:06:44;;;;;;;30.33;17.85;;;7.10;99.90;;;;;;5080361;28;20043;-70
2021/12/12 09:09:19;;;;;;;26.80;16.58;;;7.20;99.90;;;;;;5080863;28;20048;-68
2021/12/12 09:11:53;;;;;;;31.48;18.73;;;7.30;99.90;;;;;;5093427;28;20051;-69
2021/12/12 09:14:28;;;;;;;36.42;19.88;;;7.30;99.90;;;;;;5093376;28;20036;-65
2021/12/12 09:17:05;;;;;;;35.47;19.33;;;7.30;99.90;;;;;;5078347;28;20041;-67
2021/12/12 09:19:41;;;;;;;33.67;18.05;;;7.40;99.90;;;;;;5090018;28;20103;-67
2021/12/12 09:22:26;;;;;;;30.33;16.50;;;7.30;99.90;;;;;;5072081;28;20102;-68
2021/12/12 09:25:11;;;;;;;32.58;17.50;;;7.40;99.90;;;;;;5072885;28;20453;-69
2021/12/12 09:27:50;;;;;;;31.42;16.95;;;7.40;99.90;;;;;;5072761;28;20115;-69
2021/12/12 09:30:22;;;;;;;33.40;17.67;;;7.50;99.90;;;;;;5090279;28;20044;-68
2021/12/12 09:33:14;;;;;;;32.80;18.58;;;7.50;99.90;;;;;;5093408;28;20048;-68
2021/12/12 09:35:59;;;;;;;28.00;17.10;;;7.50;99.90;;;;;;5093589;28;20101;-68
2021/12/12 09:39:06;;;;;;;29.90;17.40;;;7.50;99.90;;;;;;5093176;28;20503;-67
2021/12/12 09:41:59;;;;;;;29.38;16.90;;;7.50;99.90;;;;;;5093068;28;20044;-70
2021/12/12 09:44:49;;;;;;;27.73;16.92;;;7.60;99.90;;;;;;5093342;28;20061;-68
2021/12/12 09:47:58;;;;;;;29.67;17.55;;;7.60;99.90;;;;;;5092987;28;20333;-68
2021/12/12 09:53:58;;;;;;;29.90;17.65;;;7.70;99.90;;;;;;5097435;28;20189;-69
2021/12/12 09:57:01;;;;;;;32.78;18.30;;;7.80;99.90;;;;;;5096183;28;20469;-68
2021/12/12 09:59:32;;;;;;;31.73;17.77;;;7.80;99.90;;;;;;5096381;28;20438;-67
2021/12/12 10:02:05;;;;;;;32.55;17.95;;;7.90;99.90;;;;;;5087464;28;20053;-68
2021/12/12 10:05:00;;;;;;;31.20;17.47;;;7.90;99.90;;;;;;5084115;28;20105;-68
2021/12/12 10:07:25;;;;;;;30.05;17.42;;;7.90;99.90;;;;;;5086935;28;20065;-69
2021/12/12 10:10:05;;;;;;;28.65;17.17;;;7.90;99.90;;;;;;5096334;28;20363;-68
2021/12/12 10:12:43;;;;;;;29.73;16.95;;;8.00;99.90;;;;;;5085219;28;20051;-69
2021/12/12 10:15:18;;;;;;;37.22;17.25;;;8.00;99.90;;;;;;5076177;28;20041;-68
2021/12/12 10:18:15;;;;;;;33.83;17.00;;;8.00;99.90;;;;;;5075543;28;20044;-71
2021/12/12 10:20:52;;;;;;;28.98;17.52;;;8.00;99.90;;;;;;5092078;28;20063;-69
2021/12/12 10:23:49;;;;;;;33.47;16.75;;;8.00;99.90;;;;;;5075526;28;20096;-70
2021/12/12 10:26:28;;;;;;;34.28;17.00;;;8.10;99.90;;;;;;5075759;28;20041;-70
2021/12/12 10:29:19;;;;;;;39.22;19.00;;;8.10;99.90;;;;;;5080805;28;20125;-68
2021/12/12 10:31:57;;;;;;;37.22;17.42;;;8.10;99.90;;;;;;5096245;28;20048;-69
2021/12/12 10:34:23;;;;;;;35.03;17.77;;;8.10;99.90;;;;;;5095957;28;20047;-69
2021/12/12 10:37:22;;;;;;;35.75;17.48;;;8.20;99.90;;;;;;5095260;28;20040;-69
2021/12/12 10:40:06;;;;;;;32.13;16.27;;;8.20;99.90;;;;;;5088481;28;20040;-69
2021/12/12 10:42:52;;;;;;;34.28;17.75;;;8.30;99.90;;;;;;5090574;28;20393;-71
2021/12/12 10:45:33;;;;;;;30.70;16.88;;;8.20;99.90;;;;;;5096157;28;20048;-69
2021/12/12 10:48:07;;;;;;;31.75;16.73;;;8.30;99.90;;;;;;5094473;28;20054;-69
2021/12/12 10:50:52;;;;;;;32.13;16.60;;;8.30;99.90;;;;;;5095424;28;20093;-68
2021/12/12 10:53:40;;;;;;;24.67;14.50;;;8.30;99.90;;;;;;5074731;28;20453;-69
2021/12/12 10:56:34;;;;;;;25.27;14.20;;;8.30;99.90;;;;;;5082185;28;20098;-68
2021/12/12 10:59:04;;;;;;;27.52;15.25;;;8.30;99.90;;;;;;5079541;28;20163;-68
2021/12/12 11:01:41;;;;;;;28.25;16.45;;;8.40;99.90;;;;;;5081437;28;20373;-69
2021/12/12 11:04:20;;;;;;;26.42;14.45;;;8.30;99.90;;;;;;5075330;28;20050;-68
2021/12/12 11:06:46;;;;;;;25.58;14.30;;;8.40;99.90;;;;;;5075051;28;20040;-69
2021/12/12 11:09:30;;;;;;;25.40;14.48;;;8.50;99.90;;;;;;5082202;28;20035;-68
2021/12/12 11:12:02;;;;;;;27.00;14.38;;;8.50;99.90;;;;;;5093979;28;20369;-69
2021/12/12 11:14:32;;;;;;;27.30;14.20;;;8.50;99.90;;;;;;5095259;28;20570;-68
2021/12/12 11:17:03;;;;;;;26.52;14.02;;;8.50;99.90;;;;;;5094811;28;20047;-70
2021/12/12 11:19:38;;;;;;;28.55;14.40;;;8.50;99.90;;;;;;5094969;28;20361;-68
2021/12/12 11:22:44;;;;;;;23.90;13.55;;;8.50;99.90;;;;;;5095335;28;20052;-68
2021/12/12 11:25:17;;;;;;;26.48;14.02;;;8.50;99.90;;;;;;5094562;28;20047;-68
2021/12/12 11:27:50;;;;;;;22.98;12.77;;;8.50;99.90;;;;;;5094881;28;20043;-69
2021/12/12 11:30:21;;;;;;;23.23;12.68;;;8.60;99.90;;;;;;5094775;28;20043;-70
2021/12/12 11:32:52;;;;;;;20.98;12.45;;;8.60;99.90;;;;;;5091189;28;20047;-70
2021/12/12 11:35:21;;;;;;;20.80;12.05;;;8.70;99.90;;;;;;5073060;28;20036;-65
2021/12/12 11:38:08;;;;;;;24.65;13.85;;;8.70;99.90;;;;;;5073684;28;20346;-68
2021/12/12 11:40:43;;;;;;;22.58;12.70;;;8.70;99.90;;;;;;5092871;28;20081;-68
2021/12/12 11:43:33;;;;;;;20.73;11.95;;;8.70;99.90;;;;;;5094468;28;20036;-68
2021/12/12 11:46:08;;;;;;;21.77;11.95;;;8.80;99.90;;;;;;5073826;28;20127;-71
2021/12/12 11:48:48;;;;;;;22.75;12.43;;;8.80;99.90;;;;;;5075986;28;20071;-69
2021/12/12 11:51:19;;;;;;;24.30;12.95;;;8.90;99.90;;;;;;5077142;28;20484;-69
2021/12/12 11:53:48;;;;;;;23.00;11.68;;;8.90;99.90;;;;;;5074006;28;20390;-67
2021/12/12 11:56:25;;;;;;;20.70;11.43;;;9.00;99.90;;;;;;5070285;28;20052;-69
2021/12/12 11:59:11;;;;;;;15.60;9.68;;;9.00;99.90;;;;;;5075095;28;20036;-69
2021/12/12 12:01:46;;;;;;;18.63;9.88;;;9.10;99.90;;;;;;5071547;28;20102;-66
2021/12/12 12:04:21;;;;;;;17.67;10.48;;;9.10;99.90;;;;;;5073072;28;20047;-66
2021/12/12 12:07:39;;;;;;;16.23;10.13;;;9.10;99.90;;;;;;5072715;28;20043;-65
2021/12/12 12:10:14;;;;;;;17.00;10.73;;;9.10;99.90;;;;;;5083119;28;20048;-66
2021/12/12 12:13:15;;;;;;;18.20;10.85;;;9.20;99.90;;;;;;5094141;28;20071;-66
2021/12/12 12:15:57;;;;;;;18.80;11.55;;;9.20;99.90;;;;;;5095033;28;20035;-69
2021/12/12 12:18:40;;;;;;;17.55;10.93;;;9.20;99.90;;;;;;5094830;28;20117;-68
2021/12/12 12:21:30;;;;;;;17.42;11.23;;;9.20;99.90;;;;;;5074049;28;20044;-70
2021/12/12 12:24:11;;;;;;;23.65;12.68;;;9.20;99.90;;;;;;5074061;28;20040;-67
2021/12/12 12:27:04;;;;;;;21.08;13.40;;;9.20;99.90;;;;;;5074081;28;20044;-70
2021/12/12 12:29:33;;;;;;;22.17;13.52;;;9.20;99.90;;;;;;5082793;28;20039;-70
2021/12/12 12:32:07;;;;;;;25.52;13.93;;;9.20;99.90;;;;;;5094417;28;20118;-69
2021/12/12 12:35:03;;;;;;;22.20;12.20;;;9.30;99.90;;;;;;5087725;28;20130;-71
2021/12/12 12:38:10;;;;;;;20.40;13.18;;;9.30;99.90;;;;;;5073151;28;20045;-71
2021/12/12 12:41:00;;;;;;;22.80;12.85;;;9.30;99.90;;;;;;5075271;28;20048;-71
2021/12/12 12:44:03;;;;;;;20.80;11.80;;;9.30;99.90;;;;;;5075130;28;20097;-71
2021/12/12 12:46:47;;;;;;;18.52;12.40;;;9.50;99.90;;;;;;5093468;28;20036;-76
2021/12/12 12:49:50;;;;;;;15.05;10.82;;;9.60;99.90;;;;;;5080029;28;20445;-74
2021/12/12 12:52:54;;;;;;;13.90;10.18;;;9.80;99.90;;;;;;5093495;28;20044;-73
2021/12/12 12:55:50;;;;;;;14.50;10.18;;;10.10;99.90;;;;;;5093533;28;20464;-74
2021/12/12 12:58:34;;;;;;;18.90;12.35;;;10.10;99.90;;;;;;5076611;28;20121;-75
2021/12/12 13:01:12;;;;;;;;;;;10.10;99.90;;;;;;5073569;28;20366;-74
2021/12/12 13:04:02;;;;;;;18.70;12.98;;;10.00;99.90;;;;;;5073603;28;19916;-75
2021/12/12 13:07:08;;;;;;;16.92;12.15;;;10.00;99.90;;;;;;5073019;28;20458;-74
2021/12/12 13:09:52;;;;;;;19.08;13.15;;;9.90;99.90;;;;;;5081596;28;20044;-74
2021/12/12 13:12:39;;;;;;;16.00;11.30;;;10.00;99.90;;;;;;5093691;28;20109;-74
2021/12/12 13:15:43;;;;;;;18.30;11.70;;;10.00;99.90;;;;;;5093268;28;20449;-75
2021/12/12 13:18:43;;;;;;;17.00;12.05;;;9.90;99.90;;;;;;5087887;28;20051;-75
2021/12/12 13:21:33;;;;;;;17.10;11.07;;;9.90;99.90;;;;;;5072625;28;20351;-75
2021/12/12 13:24:07;;;;;;;15.13;11.73;;;9.90;99.90;;;;;;5095343;28;20043;-75
2021/12/12 13:27:11;;;;;;;18.90;13.40;;;10.00;99.90;;;;;;5090520;28;20162;-74
2021/12/12 13:30:04;;;;;;;20.95;13.93;;;9.90;99.90;;;;;;5086860;28;20069;-76
2021/12/12 13:32:50;;;;;;;20.73;13.80;;;9.90;99.90;;;;;;5097384;28;20048;-75
2021/12/12 13:35:40;;;;;;;25.40;16.48;;;9.80;99.90;;;;;;5097626;28;20040;-76